createdAt,value
2022-10-24T00:02:25.478Z,23.95
2022-10-24T00:04:55.739Z,24.15
2022-10-24T00:07:26.014Z,24.52
2022-10-24T00:09:56.247Z,24.60
2022-10-24T00:12:26.682Z,21.60
2022-10-24T00:14:56.931Z,23.27
2022-10-24T00:17:27.174Z,21.90
2022-10-24T00:19:58.712Z,21.97
2022-10-24T00:22:29.800Z,23.10
2022-10-24T00:25:00.112Z,22.25
2022-10-24T00:27:30.587Z,22.70
2022-10-24T00:30:00.894Z,22.95
2022-10-24T00:32:31.263Z,23.87
2022-10-24T00:35:01.519Z,22.30
2022-10-24T00:37:31.779Z,22.07
2022-10-24T00:40:02.072Z,23.67
2022-10-24T00:42:32.373Z,23.35
2022-10-24T00:45:03.517Z,23.05
2022-10-24T00:47:33.846Z,24.25
2022-10-24T00:50:08.232Z,23.95
2022-10-24T00:52:39.694Z,23.20
2022-10-24T00:55:10.390Z,26.10
2022-10-24T00:57:42.084Z,22.48
2022-10-24T01:00:13.951Z,25.70
2022-10-24T01:02:44.704Z,24.52
2022-10-24T01:05:15.491Z,25.75
2022-10-24T01:07:55.700Z,23.30
2022-10-24T01:10:33.077Z,23.57
2022-10-24T01:13:16.604Z,20.50
2022-10-24T01:15:48.382Z,19.87
2022-10-24T01:18:26.139Z,18.80
2022-10-24T01:20:57.776Z,20.20
2022-10-24T01:23:44.108Z,19.67
2022-10-24T01:26:31.942Z,18.90
2022-10-24T01:29:09.608Z,19.35
2022-10-24T01:31:49.951Z,20.30
2022-10-24T01:34:21.443Z,25.48
2022-10-24T01:36:52.791Z,17.45
2022-10-24T01:39:24.423Z,17.23
2022-10-24T01:41:56.078Z,16.42
2022-10-24T01:44:27.501Z,15.40
2022-10-24T01:46:58.963Z,16.00
2022-10-24T01:49:30.379Z,13.78
2022-10-24T01:52:02.235Z,14.68
2022-10-24T01:54:33.516Z,15.65
2022-10-24T01:57:16.366Z,14.75
2022-10-24T01:59:47.924Z,15.10
2022-10-24T02:02:19.424Z,13.98
2022-10-24T02:04:53.369Z,14.20
2022-10-24T02:07:23.873Z,14.85
2022-10-24T02:09:56.275Z,14.00
2022-10-24T02:12:28.867Z,13.65
2022-10-24T02:15:03.064Z,14.53
2022-10-24T02:17:33.287Z,14.18
2022-10-24T02:20:04.801Z,14.15
2022-10-24T02:22:52.418Z,14.13
2022-10-24T02:25:26.646Z,14.55
2022-10-24T02:28:01.041Z,14.75
2022-10-24T02:30:32.697Z,13.32
2022-10-24T02:33:03.044Z,13.38
2022-10-24T02:35:34.488Z,13.80
2022-10-24T02:38:08.424Z,13.10
2022-10-24T02:40:39.425Z,13.03
2022-10-24T02:43:10.208Z,13.55
2022-10-24T02:45:41.487Z,12.98
2022-10-24T02:48:14.599Z,13.00
2022-10-24T02:50:46.154Z,12.45
2022-10-24T02:53:17.551Z,13.08
2022-10-24T02:55:49.631Z,12.40
2022-10-24T02:58:23.485Z,13.05
2022-10-24T03:00:58.038Z,12.15
2022-10-24T03:03:31.569Z,11.63
2022-10-24T03:06:02.039Z,10.70
2022-10-24T03:08:32.259Z,11.15
2022-10-24T03:11:02.667Z,10.65
2022-10-24T03:13:32.911Z,10.78
2022-10-24T03:16:03.163Z,11.53
2022-10-24T03:18:35.166Z,9.75
2022-10-24T03:21:06.916Z,10.28
2022-10-24T03:23:37.383Z,9.75
2022-10-24T03:26:07.718Z,9.63
2022-10-24T03:28:37.944Z,9.95
2022-10-24T03:31:08.395Z,9.53
2022-10-24T03:33:38.724Z,9.63
2022-10-24T03:36:09.666Z,9.83
2022-10-24T03:38:41.127Z,9.50
2022-10-24T03:41:11.364Z,10.35
2022-10-24T03:43:41.611Z,10.05
2022-10-24T03:46:11.836Z,9.83
2022-10-24T03:48:42.225Z,9.60
2022-10-24T03:51:12.464Z,10.03
2022-10-24T03:53:42.718Z,9.68
2022-10-24T03:56:12.990Z,9.43
2022-10-24T03:58:43.228Z,9.58
2022-10-24T04:01:15.074Z,9.35
2022-10-24T04:03:45.727Z,9.73
2022-10-24T04:06:16.629Z,9.30
2022-10-24T04:08:47.380Z,8.70
2022-10-24T04:11:18.015Z,9.80
2022-10-24T04:13:48.712Z,9.58
2022-10-24T04:16:19.313Z,8.75
2022-10-24T04:18:49.902Z,7.83
2022-10-24T04:21:21.640Z,8.10
2022-10-24T04:23:52.114Z,8.63
2022-10-24T04:26:22.415Z,8.43
2022-10-24T04:28:52.663Z,8.55
2022-10-24T04:31:23.760Z,9.43
2022-10-24T04:33:54.105Z,8.88
2022-10-24T04:36:24.496Z,8.33
2022-10-24T04:38:55.351Z,8.35
2022-10-24T04:41:25.787Z,8.25
2022-10-24T04:43:56.283Z,9.05
2022-10-24T04:46:26.550Z,8.58
2022-10-24T04:48:57.297Z,8.05
2022-10-24T04:51:27.820Z,8.58
2022-10-24T04:53:58.114Z,8.33
2022-10-24T04:56:28.341Z,8.93
2022-10-24T04:58:58.988Z,8.68
2022-10-24T05:01:29.519Z,8.28
2022-10-24T05:06:30.254Z,9.13
2022-10-24T05:09:00.708Z,8.65
2022-10-24T05:11:31.108Z,8.45
2022-10-24T05:14:02.477Z,8.23
2022-10-24T05:16:32.974Z,8.30
2022-10-24T05:19:03.252Z,8.90
2022-10-24T05:21:34.434Z,7.90
2022-10-24T05:24:04.702Z,8.55
2022-10-24T05:26:39.249Z,8.30
2022-10-24T05:29:10.109Z,7.97
2022-10-24T05:31:40.509Z,8.28
2022-10-24T05:34:10.778Z,8.70
2022-10-24T05:36:41.020Z,7.95
2022-10-24T05:39:11.617Z,8.78
2022-10-24T05:41:44.786Z,8.55
2022-10-24T05:44:15.992Z,8.33
2022-10-24T05:46:46.222Z,8.40
2022-10-24T05:49:16.658Z,7.83
2022-10-24T05:51:46.867Z,7.97
2022-10-24T05:54:17.102Z,8.43
2022-10-24T05:56:47.395Z,7.95
2022-10-24T05:59:17.642Z,8.30
2022-10-24T06:01:47.979Z,8.45
2022-10-24T06:04:18.598Z,7.90
2022-10-24T06:06:48.937Z,8.88
2022-10-24T06:09:19.163Z,8.55
2022-10-24T06:11:49.654Z,8.18
2022-10-24T06:14:20.058Z,8.55
2022-10-24T06:16:50.433Z,8.33
2022-10-24T06:19:22.127Z,7.67
2022-10-24T06:21:52.594Z,8.03
2022-10-24T06:24:22.912Z,8.20
2022-10-24T06:26:56.204Z,8.20
2022-10-24T06:29:27.012Z,8.10
2022-10-24T06:31:57.296Z,8.73
2022-10-24T06:34:28.334Z,8.08
2022-10-24T06:36:58.567Z,8.08
2022-10-24T06:39:28.893Z,7.92
2022-10-24T06:41:59.125Z,7.62
2022-10-24T06:44:29.403Z,7.97
2022-10-24T06:46:59.736Z,7.75
2022-10-24T06:49:30.277Z,8.20
2022-10-24T06:52:00.613Z,7.95
2022-10-24T06:54:31.974Z,7.65
2022-10-24T06:57:02.356Z,8.58
2022-10-24T06:59:33.100Z,8.73
2022-10-24T07:02:05.925Z,8.50
2022-10-24T07:04:35.426Z,8.20
2022-10-24T07:07:05.886Z,8.30
2022-10-24T07:09:36.283Z,7.95
2022-10-24T07:12:06.795Z,8.10
2022-10-24T07:14:39.200Z,8.33
2022-10-24T07:17:09.598Z,7.85
2022-10-24T07:19:39.828Z,7.60
2022-10-24T07:22:10.169Z,8.30
2022-10-24T07:24:40.674Z,8.15
2022-10-24T07:27:11.000Z,8.08
2022-10-24T07:29:41.818Z,8.50
2022-10-24T07:32:12.742Z,8.08
2022-10-24T07:34:43.464Z,8.40
2022-10-24T07:37:15.077Z,7.78
2022-10-24T07:39:46.845Z,8.00
2022-10-24T07:42:17.598Z,7.78
2022-10-24T07:44:47.788Z,8.13
2022-10-24T07:47:18.051Z,7.97
2022-10-24T07:49:48.418Z,7.97
2022-10-24T07:52:19.078Z,7.95
2022-10-24T07:54:49.684Z,7.90
2022-10-24T07:57:20.410Z,7.97
2022-10-24T07:59:50.748Z,7.62
2022-10-24T08:02:21.413Z,7.70
2022-10-24T08:04:52.703Z,7.83
2022-10-24T08:07:23.332Z,8.10
2022-10-24T08:09:53.583Z,7.50
2022-10-24T08:12:24.103Z,7.33
2022-10-24T08:14:56.097Z,7.78
2022-10-24T08:17:26.331Z,7.58
2022-10-24T08:19:56.767Z,8.05
2022-10-24T08:22:31.685Z,8.50
2022-10-24T08:25:05.227Z,7.72
2022-10-24T08:27:35.549Z,7.85
2022-10-24T08:30:08.605Z,7.78
2022-10-24T08:32:40.303Z,7.40
2022-10-24T08:35:12.220Z,8.03
2022-10-24T08:37:46.687Z,7.53
2022-10-24T08:40:18.592Z,7.97
2022-10-24T08:42:49.702Z,7.37
2022-10-24T08:45:21.150Z,7.25
2022-10-24T08:48:01.360Z,7.65
2022-10-24T08:50:33.395Z,7.83
2022-10-24T08:53:04.836Z,9.45
2022-10-24T08:55:50.363Z,9.05
2022-10-24T08:58:18.706Z,8.48
2022-10-24T09:00:50.226Z,8.68
2022-10-24T09:06:14.491Z,7.97
2022-10-24T09:08:49.094Z,8.33
2022-10-24T09:11:32.772Z,7.78
2022-10-24T09:14:04.464Z,8.28
2022-10-24T09:16:35.043Z,8.33
2022-10-24T09:19:05.559Z,7.67
2022-10-24T09:21:35.839Z,7.92
2022-10-24T09:24:06.610Z,8.35
2022-10-24T09:26:39.294Z,7.90
2022-10-24T09:29:09.751Z,8.50
2022-10-24T09:31:50.500Z,7.75
2022-10-24T09:34:21.168Z,8.15
2022-10-24T09:36:51.922Z,8.95
2022-10-24T09:39:26.691Z,8.45
2022-10-24T09:41:57.460Z,8.73
2022-10-24T09:44:35.046Z,9.18
2022-10-24T09:47:07.146Z,8.38
2022-10-24T09:49:42.403Z,9.15
2022-10-24T09:52:23.269Z,9.28
2022-10-24T09:54:54.679Z,9.30
2022-10-24T09:57:26.875Z,8.75
2022-10-24T10:00:12.753Z,8.40
2022-10-24T10:02:44.474Z,8.70
2022-10-24T10:05:15.884Z,9.08
2022-10-24T10:07:48.219Z,9.05
2022-10-24T10:10:22.736Z,8.60
2022-10-24T10:12:59.976Z,9.35
2022-10-24T10:15:38.082Z,9.33
2022-10-24T10:18:25.042Z,8.33
2022-10-24T10:21:02.570Z,9.30
2022-10-24T10:23:33.994Z,9.00
2022-10-24T10:26:05.623Z,9.60
2022-10-24T10:28:37.027Z,10.08
2022-10-24T10:31:07.866Z,10.13
2022-10-24T10:33:54.476Z,9.30
2022-10-24T10:36:28.795Z,9.60
2022-10-24T10:39:03.490Z,9.90
2022-10-24T10:41:37.904Z,9.83
2022-10-24T10:44:12.160Z,9.40
2022-10-24T10:46:52.727Z,9.58
2022-10-24T10:49:33.518Z,10.13
2022-10-24T10:52:10.803Z,10.15
2022-10-24T10:54:45.060Z,11.05
2022-10-24T10:57:17.439Z,10.45
2022-10-24T10:59:49.196Z,11.05
2022-10-24T11:02:20.828Z,11.10
2022-10-24T11:04:55.380Z,12.98
2022-10-24T11:07:26.885Z,11.22
2022-10-24T11:09:59.131Z,11.75
2022-10-24T11:15:24.325Z,14.30
2022-10-24T11:17:58.896Z,13.62
2022-10-24T11:20:30.756Z,12.73
2022-10-24T11:23:08.478Z,12.40
2022-10-24T11:25:57.192Z,14.33
2022-10-24T11:28:38.369Z,13.48
2022-10-24T11:31:12.828Z,13.95
2022-10-24T11:33:47.338Z,14.20
2022-10-24T11:36:24.728Z,14.33
2022-10-24T11:39:05.350Z,13.25
2022-10-24T11:41:37.232Z,14.25
2022-10-24T11:44:27.256Z,14.23
2022-10-24T11:47:15.061Z,15.03
2022-10-24T11:49:46.914Z,14.10
2022-10-24T11:52:18.357Z,14.98
2022-10-24T11:54:58.865Z,14.60
2022-10-24T11:57:32.041Z,15.48
2022-10-24T12:00:02.141Z,14.83
2022-10-24T12:02:39.663Z,15.13
2022-10-24T12:05:17.981Z,15.50
2022-10-24T12:07:59.531Z,16.10
2022-10-24T12:10:33.770Z,16.40
2022-10-24T12:13:21.789Z,16.25
2022-10-24T12:16:09.949Z,16.90
2022-10-24T12:18:41.471Z,18.17
2022-10-24T12:21:13.375Z,18.60
2022-10-24T12:23:44.915Z,20.12
2022-10-24T12:26:22.876Z,18.57
2022-10-24T12:29:03.671Z,19.12
2022-10-24T12:31:34.670Z,19.92
2022-10-24T12:34:21.094Z,18.73
2022-10-24T12:37:06.833Z,19.50
2022-10-24T12:39:38.341Z,21.02
2022-10-24T12:42:09.798Z,21.15
2022-10-24T12:44:42.309Z,21.62
2022-10-24T12:47:31.754Z,21.35
2022-10-24T12:50:06.087Z,22.40
2022-10-24T12:52:38.381Z,22.40
2022-10-24T12:55:09.867Z,21.82
2022-10-24T12:57:41.430Z,21.40
2022-10-24T13:00:25.102Z,19.50
2022-10-24T13:02:56.527Z,21.77
2022-10-24T13:05:28.114Z,23.47
2022-10-24T13:08:01.758Z,22.93
2022-10-24T13:10:33.142Z,20.43
2022-10-24T13:15:49.328Z,24.07
2022-10-24T13:18:30.984Z,20.88
2022-10-24T13:21:17.758Z,23.27
2022-10-24T13:23:51.174Z,24.37
2022-10-24T13:26:42.520Z,23.77
2022-10-24T13:29:32.143Z,22.37
2022-10-24T13:32:08.345Z,21.27
2022-10-24T13:34:45.912Z,23.50
2022-10-24T13:37:20.045Z,23.65
2022-10-24T13:39:54.509Z,22.98
2022-10-24T13:42:41.019Z,22.77
2022-10-24T13:45:26.574Z,21.50
2022-10-24T13:47:58.286Z,23.70
2022-10-24T13:50:51.648Z,24.20
2022-10-24T13:53:28.227Z,23.32
2022-10-24T13:55:52.689Z,23.38
2022-10-24T13:58:27.702Z,23.05
2022-10-24T14:00:59.131Z,23.73
2022-10-24T14:03:31.237Z,22.10
2022-10-24T14:06:02.659Z,24.67
2022-10-24T14:08:34.149Z,23.65
2022-10-24T14:11:08.397Z,25.70
2022-10-24T14:13:40.242Z,26.05
2022-10-24T14:16:10.595Z,25.08
2022-10-24T14:18:42.108Z,27.02
2022-10-24T14:21:22.397Z,29.23
2022-10-24T14:24:09.106Z,26.60
2022-10-24T14:26:40.141Z,27.30
2022-10-24T14:29:14.802Z,29.05
2022-10-24T14:31:46.114Z,27.05
2022-10-24T14:34:21.466Z,27.52
2022-10-24T14:36:55.135Z,26.23
2022-10-24T14:39:25.703Z,27.27
2022-10-24T14:41:58.494Z,28.30
2022-10-24T14:44:38.493Z,28.05
2022-10-24T14:47:12.471Z,29.42
2022-10-24T14:49:42.810Z,29.65
2022-10-24T14:52:19.825Z,28.45
2022-10-24T14:54:56.858Z,28.52
2022-10-24T14:57:28.089Z,28.02
2022-10-24T14:59:59.749Z,27.62
2022-10-24T15:02:43.042Z,28.87
2022-10-24T15:05:24.784Z,28.52
2022-10-24T15:08:20.515Z,28.65
2022-10-24T15:10:41.692Z,29.18
2022-10-24T15:13:35.112Z,30.50
2022-10-24T15:16:17.563Z,29.77
2022-10-24T15:18:56.714Z,30.45
2022-10-24T15:21:35.585Z,30.10
2022-10-24T15:24:06.029Z,30.80
2022-10-24T15:26:55.236Z,28.40
2022-10-24T15:29:29.252Z,29.25
2022-10-24T15:32:09.528Z,27.67
2022-10-24T15:34:47.156Z,26.25
2022-10-24T15:37:21.919Z,25.52
2022-10-24T15:39:53.349Z,26.60
2022-10-24T15:42:26.429Z,27.35
2022-10-24T15:44:56.852Z,25.48
2022-10-24T15:47:32.275Z,25.10
2022-10-24T15:50:09.451Z,25.50
2022-10-24T15:52:40.524Z,24.92
2022-10-24T15:55:28.384Z,24.10
2022-10-24T15:58:01.010Z,22.58
2022-10-24T16:00:34.313Z,23.83
2022-10-24T16:03:09.253Z,23.38
2022-10-24T16:05:40.641Z,23.87
2022-10-24T16:08:19.209Z,23.87
2022-10-24T16:10:56.517Z,23.47
2022-10-24T16:13:26.895Z,23.12
2022-10-24T16:19:04.565Z,22.25
2022-10-24T16:24:28.247Z,22.93
2022-10-24T16:27:00.789Z,22.40
2022-10-24T16:29:32.955Z,22.48
2022-10-24T16:32:04.130Z,22.40
2022-10-24T16:34:36.740Z,22.95
2022-10-24T16:37:21.765Z,23.55
2022-10-24T16:40:00.300Z,22.10
2022-10-24T16:42:30.595Z,23.70
2022-10-24T16:45:07.081Z,23.25
2022-10-24T16:47:39.718Z,23.83
2022-10-24T16:50:12.081Z,23.25
2022-10-24T16:52:42.351Z,23.38
2022-10-24T16:55:13.824Z,23.90
2022-10-24T16:57:44.280Z,24.47
2022-10-24T17:00:16.959Z,24.50
2022-10-24T17:02:51.938Z,24.47
2022-10-24T17:05:23.638Z,24.50
2022-10-24T17:07:54.017Z,23.62
2022-10-24T17:10:25.059Z,23.02
2022-10-24T17:12:55.454Z,24.40
2022-10-24T17:15:25.800Z,23.90
2022-10-24T17:17:57.479Z,23.42
2022-10-24T17:20:27.737Z,24.55
2022-10-24T17:23:00.763Z,24.37
2022-10-24T17:25:30.262Z,24.02
2022-10-24T17:28:00.671Z,24.98
2022-10-24T17:30:31.446Z,25.05
2022-10-24T17:33:01.767Z,25.08
2022-10-24T17:35:32.047Z,25.15
2022-10-24T17:38:15.739Z,26.05
2022-10-24T17:40:48.330Z,25.45
2022-10-24T17:43:28.570Z,24.77
2022-10-24T17:45:59.237Z,24.40
2022-10-24T17:48:29.501Z,25.32
2022-10-24T17:51:04.498Z,24.63
2022-10-24T17:53:34.772Z,25.92
2022-10-24T17:56:05.079Z,26.62
2022-10-24T17:58:35.456Z,25.08
2022-10-24T18:01:05.874Z,26.25
2022-10-24T18:03:36.130Z,25.85
2022-10-24T18:06:07.460Z,25.62
2022-10-24T18:08:37.794Z,26.12
2022-10-24T18:11:09.747Z,26.07
2022-10-24T18:13:40.598Z,25.92
2022-10-24T18:16:15.270Z,26.25
2022-10-24T18:18:45.715Z,27.10
2022-10-24T18:21:20.110Z,26.40
2022-10-24T18:23:48.749Z,27.13
2022-10-24T18:26:19.979Z,26.55
2022-10-24T18:28:51.339Z,27.27
2022-10-24T18:31:23.489Z,26.37
2022-10-24T18:33:53.760Z,26.17
2022-10-24T18:36:25.558Z,26.57
2022-10-24T18:38:59.461Z,26.35
2022-10-24T18:41:31.087Z,26.97
2022-10-24T18:44:02.672Z,27.20
2022-10-24T18:46:33.175Z,26.15
2022-10-24T18:49:03.607Z,26.90
2022-10-24T18:51:51.443Z,26.55
2022-10-24T18:54:22.298Z,27.50
2022-10-24T18:56:52.682Z,27.73
2022-10-24T18:59:23.443Z,27.87
2022-10-24T19:02:11.523Z,27.73
2022-10-24T19:04:42.997Z,26.52
2022-10-24T19:07:13.256Z,27.45
2022-10-24T19:09:43.661Z,27.40
2022-10-24T19:12:13.942Z,27.10
2022-10-24T19:14:44.500Z,28.67
2022-10-24T19:17:15.460Z,28.23
2022-10-24T19:19:45.727Z,28.52
2022-10-24T19:22:16.078Z,27.27
2022-10-24T19:24:46.319Z,27.48
2022-10-24T19:27:16.587Z,28.23
2022-10-24T19:29:46.894Z,28.32
2022-10-24T19:32:17.394Z,28.92
2022-10-24T19:34:48.002Z,29.07
2022-10-24T19:37:18.254Z,28.73
2022-10-24T19:39:48.515Z,29.87
2022-10-24T19:42:18.814Z,28.67
2022-10-24T19:44:53.419Z,29.00
2022-10-24T19:47:24.984Z,29.27
2022-10-24T19:49:55.357Z,29.07
2022-10-24T19:52:25.594Z,28.47
2022-10-24T19:54:55.920Z,28.60
2022-10-24T19:57:26.362Z,29.60
2022-10-24T19:59:56.620Z,29.07
2022-10-24T20:02:28.140Z,29.90
2022-10-24T20:04:59.383Z,29.57
2022-10-24T20:07:29.638Z,29.30
2022-10-24T20:09:59.914Z,28.07
2022-10-24T20:12:30.157Z,29.67
2022-10-24T20:15:00.451Z,29.85
2022-10-24T20:17:30.713Z,30.60
2022-10-24T20:20:01.040Z,29.72
2022-10-24T20:25:47.783Z,29.48
2022-10-24T20:31:39.249Z,28.70
2022-10-24T20:34:13.125Z,30.35
2022-10-24T20:36:45.225Z,30.00
2022-10-24T20:39:16.974Z,30.25
2022-10-24T20:41:50.326Z,29.25
2022-10-24T20:44:18.865Z,30.55
2022-10-24T20:46:49.338Z,30.77
2022-10-24T20:49:19.577Z,30.70
2022-10-24T20:51:49.812Z,30.85
2022-10-24T20:54:20.625Z,30.85
2022-10-24T20:56:50.869Z,30.25
2022-10-24T20:59:21.118Z,30.32
2022-10-24T21:01:51.607Z,30.00
2022-10-24T21:04:22.178Z,30.30
2022-10-24T21:06:55.583Z,30.70
2022-10-24T21:09:25.855Z,29.57
2022-10-24T21:11:56.119Z,31.17
2022-10-24T21:14:28.916Z,30.90
2022-10-24T21:16:59.187Z,31.65
2022-10-24T21:19:30.858Z,31.52
2022-10-24T21:22:01.160Z,30.27
2022-10-24T21:27:42.048Z,32.05
2022-10-24T21:30:14.778Z,32.35
2022-10-24T21:32:44.400Z,31.50
2022-10-24T21:38:17.464Z,31.30
2022-10-24T21:43:35.046Z,32.23
2022-10-24T21:46:15.522Z,32.45
2022-10-24T21:48:45.803Z,32.78
2022-10-24T21:51:17.037Z,33.48
2022-10-24T21:53:51.241Z,32.80
2022-10-24T21:56:22.518Z,33.42
2022-10-24T21:58:56.974Z,32.13
2022-10-24T22:01:27.761Z,36.35
2022-10-24T22:03:58.360Z,34.08
2022-10-24T22:06:29.438Z,33.05
2022-10-24T22:08:59.696Z,32.15
2022-10-24T22:11:31.133Z,33.05
2022-10-24T22:14:01.390Z,32.28
2022-10-24T22:16:32.253Z,32.55
2022-10-24T22:19:03.503Z,33.00
2022-10-24T22:21:35.555Z,30.68
2022-10-24T22:26:38.440Z,31.68
2022-10-24T22:29:09.308Z,31.93
2022-10-24T22:31:39.765Z,31.00
2022-10-24T22:34:10.083Z,31.48
2022-10-24T22:36:47.744Z,30.77
2022-10-24T22:39:19.184Z,32.58
2022-10-24T22:41:49.816Z,30.95
2022-10-24T22:44:21.617Z,30.77
2022-10-24T22:46:53.067Z,31.52
2022-10-24T22:49:30.388Z,31.55
2022-10-24T22:52:00.951Z,31.23
2022-10-24T22:54:32.370Z,30.05
2022-10-24T22:57:03.010Z,31.07
2022-10-24T22:59:34.007Z,31.37
2022-10-24T23:02:05.597Z,32.40
2022-10-24T23:04:37.026Z,32.10
2022-10-24T23:07:08.476Z,33.33
2022-10-24T23:09:38.729Z,33.00
2022-10-24T23:12:16.255Z,33.73
2022-10-24T23:14:47.201Z,32.83
2022-10-24T23:17:18.973Z,32.23
2022-10-24T23:23:28.921Z,36.13
2022-10-24T23:25:50.090Z,36.53
2022-10-24T23:28:21.551Z,37.17
2022-10-24T23:30:52.012Z,36.13
2022-10-24T23:33:31.546Z,38.73
2022-10-24T23:36:02.369Z,39.35
2022-10-24T23:41:28.980Z,36.10
2022-10-24T23:43:59.601Z,36.60
2022-10-24T23:46:31.003Z,34.92
2022-10-24T23:49:11.698Z,34.67
2022-10-24T23:51:59.873Z,34.75
2022-10-24T23:54:32.030Z,34.15
2022-10-24T23:57:02.389Z,34.67
2022-10-24T23:59:32.632Z,33.90
